createdAt,value
2019-05-25T00:01:53.832Z,6.07
2019-05-25T00:04:23.942Z,5.10
2019-05-25T00:06:53.959Z,6.03
2019-05-25T00:09:25.863Z,4.60
2019-05-25T00:11:55.924Z,4.30
2019-05-25T00:14:26.000Z,4.30
2019-05-25T00:16:56.399Z,4.50
2019-05-25T00:19:26.535Z,5.90
2019-05-25T00:21:56.568Z,5.97
2019-05-25T00:24:26.611Z,6.37
2019-05-25T00:26:56.765Z,4.47
2019-05-25T00:29:27.185Z,6.73
2019-05-25T00:31:57.264Z,4.57
2019-05-25T00:34:27.375Z,4.80
2019-05-25T00:36:57.822Z,4.83
2019-05-25T00:39:30.494Z,3.90
2019-05-25T00:42:00.572Z,3.70
2019-05-25T00:44:30.595Z,4.13
2019-05-25T00:47:00.815Z,5.67
2019-05-25T00:49:30.863Z,3.80
2019-05-25T00:52:00.911Z,3.87
2019-05-25T00:54:32.023Z,5.07
2019-05-25T00:57:02.259Z,3.70
2019-05-25T00:59:32.331Z,4.80
2019-05-25T01:02:03.196Z,4.27
2019-05-25T01:04:33.198Z,3.90
2019-05-25T01:07:03.644Z,3.80
2019-05-25T01:09:33.976Z,3.73
2019-05-25T01:12:04.138Z,4.60
2019-05-25T01:14:34.209Z,5.43
2019-05-25T01:17:04.405Z,3.73
2019-05-25T01:19:34.539Z,3.83
2019-05-25T01:22:04.862Z,4.60
2019-05-25T01:24:44.455Z,4.90
2019-05-25T01:27:09.434Z,3.83
2019-05-25T01:29:39.475Z,4.40
2019-05-25T01:32:09.042Z,4.37
2019-05-25T01:34:39.431Z,3.80
2019-05-25T01:37:09.476Z,5.53
2019-05-25T01:39:39.478Z,4.77
2019-05-25T01:42:09.935Z,3.90
2019-05-25T01:44:40.535Z,3.60
2019-05-25T01:47:10.865Z,4.60
2019-05-25T01:49:40.941Z,4.10
2019-05-25T01:52:11.237Z,3.60
2019-05-25T01:54:41.276Z,3.67
2019-05-25T01:57:12.111Z,3.80
2019-05-25T01:59:42.288Z,5.07
2019-05-25T02:02:12.374Z,3.67
2019-05-25T02:04:42.497Z,4.60
2019-05-25T02:07:12.334Z,4.00
2019-05-25T02:09:42.474Z,6.07
2019-05-25T02:12:13.556Z,5.70
2019-05-25T02:14:43.593Z,7.43
2019-05-25T02:17:13.625Z,5.17
2019-05-25T02:19:44.080Z,4.40
2019-05-25T02:22:14.181Z,4.53
2019-05-25T02:24:44.507Z,5.57
2019-05-25T02:27:14.513Z,4.10
2019-05-25T02:29:44.596Z,4.50
2019-05-25T02:32:14.595Z,4.30
2019-05-25T02:34:44.983Z,5.17
2019-05-25T02:37:14.983Z,5.37
2019-05-25T02:39:46.446Z,5.67
2019-05-25T02:42:16.535Z,4.97
2019-05-25T02:44:46.628Z,5.50
2019-05-25T02:47:16.602Z,5.70
2019-05-25T02:49:46.615Z,4.23
2019-05-25T02:52:16.887Z,4.10
2019-05-25T02:54:46.867Z,4.70
2019-05-25T02:57:17.283Z,5.73
2019-05-25T02:59:47.415Z,4.43
2019-05-25T03:02:17.974Z,5.00
2019-05-25T03:04:50.071Z,4.33
2019-05-25T03:07:21.303Z,4.40
2019-05-25T03:09:51.448Z,4.60
2019-05-25T03:12:21.851Z,4.73
2019-05-25T03:14:53.383Z,5.17
2019-05-25T03:17:23.685Z,4.40
2019-05-25T03:19:53.751Z,6.50
2019-05-25T03:22:24.183Z,4.27
2019-05-25T03:24:54.260Z,6.40
2019-05-25T03:27:24.114Z,4.77
2019-05-25T03:29:54.229Z,4.50
2019-05-25T03:32:24.345Z,5.90
2019-05-25T03:34:55.080Z,5.17
2019-05-25T03:37:26.617Z,4.73
2019-05-25T03:39:56.730Z,4.83
2019-05-25T03:42:26.887Z,8.03
2019-05-25T03:44:57.011Z,5.37
2019-05-25T03:47:27.071Z,5.30
2019-05-25T03:49:58.274Z,5.20
2019-05-25T03:52:28.318Z,5.10
2019-05-25T03:54:58.002Z,4.63
2019-05-25T03:57:27.925Z,5.37
2019-05-25T03:59:57.990Z,5.20
2019-05-25T04:02:28.394Z,6.33
2019-05-25T04:04:57.969Z,4.83
2019-05-25T04:07:28.193Z,4.73
2019-05-25T04:09:58.191Z,5.00
2019-05-25T04:12:31.760Z,4.80
2019-05-25T04:15:02.213Z,4.97
2019-05-25T04:17:33.402Z,4.47
2019-05-25T04:20:03.606Z,5.80
2019-05-25T04:22:33.746Z,5.27
2019-05-25T04:25:03.922Z,5.37
2019-05-25T04:27:37.089Z,5.80
2019-05-25T04:30:08.568Z,6.50
2019-05-25T04:32:38.605Z,5.30
2019-05-25T04:35:09.783Z,5.23
2019-05-25T04:37:39.863Z,6.83
2019-05-25T04:40:09.930Z,5.70
2019-05-25T04:42:40.219Z,9.30
2019-05-25T04:45:10.583Z,7.63
2019-05-25T04:47:41.065Z,6.20
2019-05-25T04:50:11.136Z,7.00
2019-05-25T04:52:41.809Z,6.80
2019-05-25T04:55:11.474Z,8.63
2019-05-25T04:57:41.852Z,8.30
2019-05-25T05:00:12.853Z,7.83
2019-05-25T05:02:43.109Z,8.77
2019-05-25T05:05:13.210Z,7.17
2019-05-25T05:07:43.690Z,7.87
2019-05-25T05:10:15.878Z,7.13
2019-05-25T05:12:47.513Z,7.57
2019-05-25T05:15:17.532Z,7.67
2019-05-25T05:17:49.179Z,8.60
2019-05-25T05:20:19.754Z,8.27
2019-05-25T05:22:49.987Z,8.97
2019-05-25T05:25:20.005Z,8.43
2019-05-25T05:27:51.074Z,7.97
2019-05-25T05:30:31.478Z,9.57
2019-05-25T05:33:01.918Z,8.07
2019-05-25T05:35:38.725Z,8.30
2019-05-25T05:38:07.243Z,7.83
2019-05-25T05:40:37.971Z,9.20
2019-05-25T05:43:11.824Z,8.40
2019-05-25T05:45:43.214Z,8.63
2019-05-25T05:48:14.047Z,7.80
2019-05-25T05:50:46.449Z,8.67
2019-05-25T05:53:19.384Z,8.03
2019-05-25T05:55:49.993Z,8.27
2019-05-25T05:58:20.384Z,10.30
2019-05-25T06:00:50.974Z,10.43
2019-05-25T06:03:21.849Z,7.40
2019-05-25T06:05:52.410Z,8.03
2019-05-25T06:08:23.381Z,9.73
2019-05-25T06:10:53.838Z,7.47
2019-05-25T06:13:25.468Z,7.47
2019-05-25T06:15:56.196Z,7.80
2019-05-25T06:18:27.662Z,8.73
2019-05-25T06:20:58.396Z,8.30
2019-05-25T06:23:29.088Z,7.60
2019-05-25T06:26:02.560Z,7.97
2019-05-25T06:28:33.066Z,7.77
2019-05-25T06:31:03.671Z,7.63
2019-05-25T06:33:33.911Z,7.90
2019-05-25T06:36:04.582Z,7.27
2019-05-25T06:38:34.957Z,7.73
2019-05-25T06:41:04.475Z,7.45
2019-05-25T06:43:34.465Z,7.30
2019-05-25T06:46:04.598Z,7.83
2019-05-25T06:48:34.416Z,7.87
2019-05-25T06:51:07.134Z,8.28
2019-05-25T06:53:37.294Z,7.27
2019-05-25T06:56:09.163Z,7.03
2019-05-25T06:58:39.489Z,9.17
2019-05-25T07:01:09.930Z,8.05
2019-05-25T07:03:40.221Z,8.08
2019-05-25T07:06:11.516Z,7.45
2019-05-25T07:08:42.489Z,7.20
2019-05-25T07:11:13.863Z,7.30
2019-05-25T07:13:44.063Z,7.55
2019-05-25T07:16:14.183Z,7.83
2019-05-25T07:18:44.309Z,8.45
2019-05-25T07:21:17.250Z,7.77
2019-05-25T07:23:50.400Z,8.33
2019-05-25T07:26:20.624Z,10.00
2019-05-25T07:28:50.946Z,8.40
2019-05-25T07:31:21.537Z,7.45
2019-05-25T07:33:51.638Z,8.37
2019-05-25T07:36:22.145Z,7.10
2019-05-25T07:38:53.376Z,7.37
2019-05-25T07:41:25.079Z,7.00
2019-05-25T07:43:56.324Z,7.85
2019-05-25T07:46:27.758Z,7.28
2019-05-25T07:48:59.058Z,7.45
2019-05-25T07:51:29.292Z,7.45
2019-05-25T07:53:59.453Z,7.83
2019-05-25T07:56:30.001Z,7.90
2019-05-25T07:59:00.071Z,8.55
2019-05-25T08:01:30.317Z,8.00
2019-05-25T08:04:00.851Z,8.18
2019-05-25T08:06:31.995Z,8.28
2019-05-25T08:09:02.399Z,7.58
2019-05-25T08:11:32.829Z,8.63
2019-05-25T08:14:03.125Z,8.20
2019-05-25T08:16:33.377Z,8.05
2019-05-25T08:19:03.586Z,9.40
2019-05-25T08:21:33.810Z,8.83
2019-05-25T08:24:05.197Z,8.73
2019-05-25T08:26:36.006Z,9.03
2019-05-25T08:29:06.266Z,9.38
2019-05-25T08:31:36.843Z,8.23
2019-05-25T08:34:06.541Z,8.08
2019-05-25T08:36:36.395Z,8.88
2019-05-25T08:39:13.068Z,8.90
2019-05-25T08:41:45.580Z,8.40
2019-05-25T08:44:15.660Z,9.25
2019-05-25T08:46:45.953Z,7.70
2019-05-25T08:49:16.561Z,8.40
2019-05-25T08:51:46.364Z,8.90
2019-05-25T08:54:18.678Z,8.33
2019-05-25T08:56:49.811Z,10.18
2019-05-25T08:59:20.963Z,8.90
2019-05-25T09:01:50.624Z,9.40
2019-05-25T09:04:21.038Z,8.90
2019-05-25T09:06:50.959Z,8.35
2019-05-25T09:09:22.152Z,10.23
2019-05-25T09:11:53.200Z,12.70
2019-05-25T09:14:25.049Z,11.00
2019-05-25T09:16:55.556Z,10.85
2019-05-25T09:19:26.830Z,10.50
2019-05-25T09:22:02.562Z,9.28
2019-05-25T09:24:30.094Z,9.03
2019-05-25T09:27:01.237Z,9.65
2019-05-25T09:29:31.966Z,9.95
2019-05-25T09:32:06.890Z,8.90
2019-05-25T09:34:36.010Z,10.72
2019-05-25T09:37:07.171Z,9.75
2019-05-25T09:39:37.980Z,9.45
2019-05-25T09:42:09.448Z,9.98
2019-05-25T09:44:39.613Z,9.65
2019-05-25T09:47:10.254Z,9.10
2019-05-25T09:49:40.402Z,8.85
2019-05-25T09:52:11.968Z,9.63
2019-05-25T09:54:42.194Z,9.35
2019-05-25T09:57:13.975Z,10.23
2019-05-25T09:59:44.458Z,10.35
2019-05-25T10:02:14.917Z,9.85
2019-05-25T10:04:45.639Z,9.58
2019-05-25T10:07:17.157Z,9.78
2019-05-25T10:09:48.393Z,10.65
2019-05-25T10:12:18.938Z,10.50
2019-05-25T10:14:49.078Z,10.53
2019-05-25T10:17:20.301Z,9.53
2019-05-25T10:19:49.829Z,11.20
2019-05-25T10:22:19.654Z,9.85
2019-05-25T10:24:49.665Z,10.33
2019-05-25T10:27:19.794Z,10.87
2019-05-25T10:29:50.127Z,11.03
2019-05-25T10:32:20.221Z,11.55
2019-05-25T10:34:50.639Z,11.73
2019-05-25T10:37:22.311Z,11.50
2019-05-25T10:39:52.545Z,12.30
2019-05-25T10:42:23.549Z,12.85
2019-05-25T10:44:53.987Z,15.43
2019-05-25T10:47:24.498Z,12.28
2019-05-25T10:49:54.614Z,13.03
2019-05-25T10:52:26.579Z,13.85
2019-05-25T10:54:58.437Z,13.60
2019-05-25T10:57:29.285Z,14.30
2019-05-25T11:00:00.388Z,13.48
2019-05-25T11:02:32.508Z,14.68
2019-05-25T11:05:03.124Z,15.05
2019-05-25T11:07:34.418Z,15.20
2019-05-25T11:10:06.459Z,14.23
2019-05-25T11:12:37.572Z,14.60
2019-05-25T11:15:08.647Z,14.43
2019-05-25T11:17:38.983Z,15.10
2019-05-25T11:20:15.319Z,13.48
2019-05-25T11:22:45.429Z,12.90
2019-05-25T11:25:17.522Z,13.50
2019-05-25T11:27:47.807Z,13.55
2019-05-25T11:30:19.234Z,13.55
2019-05-25T11:32:49.498Z,15.08
2019-05-25T11:35:19.942Z,14.20
2019-05-25T11:37:50.736Z,14.38
2019-05-25T11:40:21.414Z,14.43
2019-05-25T11:42:53.256Z,14.38
2019-05-25T11:45:26.872Z,14.40
2019-05-25T11:47:59.058Z,14.33
2019-05-25T11:50:29.205Z,15.05
2019-05-25T11:53:05.783Z,15.05
2019-05-25T11:55:34.785Z,14.87
2019-05-25T11:58:06.767Z,14.50
2019-05-25T12:00:37.373Z,15.08
2019-05-25T12:03:09.160Z,14.50
2019-05-25T12:05:39.672Z,14.50
2019-05-25T12:08:11.893Z,15.20
2019-05-25T12:10:42.617Z,15.48
2019-05-25T12:13:13.366Z,15.38
2019-05-25T12:15:43.678Z,15.38
2019-05-25T12:18:13.918Z,14.25
2019-05-25T12:20:44.031Z,15.05
2019-05-25T12:23:16.688Z,14.65
2019-05-25T12:25:46.968Z,14.93
2019-05-25T12:28:19.014Z,14.65
2019-05-25T12:30:50.746Z,14.00
2019-05-25T12:33:21.715Z,13.15
2019-05-25T12:35:52.047Z,13.83
2019-05-25T12:38:23.222Z,12.75
2019-05-25T12:40:54.139Z,12.23
2019-05-25T12:43:27.182Z,11.18
2019-05-25T12:45:57.275Z,11.95
2019-05-25T12:48:27.954Z,11.75
2019-05-25T12:50:58.186Z,11.90
2019-05-25T12:53:28.554Z,12.03
2019-05-25T12:55:58.740Z,11.95
2019-05-25T12:58:31.059Z,12.58
2019-05-25T13:01:01.648Z,12.73
2019-05-25T13:03:32.045Z,11.55
2019-05-25T13:06:02.615Z,12.40
2019-05-25T13:08:34.253Z,12.10
2019-05-25T13:11:03.846Z,12.93
2019-05-25T13:13:34.220Z,11.10
2019-05-25T13:16:04.413Z,9.83
2019-05-25T13:18:34.907Z,15.00
2019-05-25T13:21:05.542Z,10.80
2019-05-25T13:23:35.806Z,11.25
2019-05-25T13:26:05.591Z,10.50
2019-05-25T13:28:37.658Z,11.28
2019-05-25T13:31:11.761Z,9.15
2019-05-25T13:33:39.337Z,8.55
2019-05-25T13:36:10.079Z,7.50
2019-05-25T13:38:40.171Z,8.08
2019-05-25T13:41:10.384Z,3.95
2019-05-25T13:43:40.503Z,2.75
2019-05-25T13:46:10.781Z,2.70
2019-05-25T13:48:40.950Z,2.75
2019-05-25T13:51:11.199Z,3.05
2019-05-25T13:53:41.445Z,2.65
2019-05-25T13:56:12.267Z,3.37
2019-05-25T13:58:42.560Z,3.42
2019-05-25T14:01:27.535Z,3.30
2019-05-25T14:03:47.184Z,3.10
2019-05-25T14:06:17.159Z,3.27
2019-05-25T14:08:47.881Z,4.00
2019-05-25T14:11:17.960Z,3.30
2019-05-25T14:13:50.354Z,3.52
2019-05-25T14:16:21.439Z,3.62
2019-05-25T14:18:51.651Z,3.83
2019-05-25T14:21:24.590Z,4.00
2019-05-25T14:23:55.192Z,5.63
2019-05-25T14:26:25.031Z,4.27
2019-05-25T14:28:55.007Z,5.30
2019-05-25T14:31:24.568Z,4.53
2019-05-25T14:33:55.033Z,4.80
2019-05-25T14:36:25.211Z,4.70
2019-05-25T14:38:56.759Z,5.17
2019-05-25T14:41:26.517Z,5.83
2019-05-25T14:43:56.510Z,6.37
2019-05-25T14:46:28.212Z,6.37
2019-05-25T14:48:58.716Z,5.80
2019-05-25T14:51:29.284Z,6.40
2019-05-25T14:53:59.329Z,6.73
2019-05-25T14:56:29.374Z,6.43
2019-05-25T14:58:59.590Z,8.63
2019-05-25T15:01:30.512Z,6.90
2019-05-25T15:04:02.092Z,6.93
2019-05-25T15:06:32.618Z,6.67
2019-05-25T15:09:04.060Z,7.97
2019-05-25T15:11:33.920Z,6.83
2019-05-25T15:14:04.621Z,7.87
2019-05-25T15:16:35.598Z,7.17
2019-05-25T15:19:07.116Z,7.50
2019-05-25T15:21:39.379Z,7.63
2019-05-25T15:24:09.567Z,7.22
2019-05-25T15:26:40.024Z,8.60
2019-05-25T15:29:11.480Z,6.87
2019-05-25T15:31:42.810Z,7.67
2019-05-25T15:34:13.438Z,7.40
2019-05-25T15:36:43.610Z,7.93
2019-05-25T15:39:14.163Z,8.30
2019-05-25T15:41:44.331Z,7.20
2019-05-25T15:44:14.553Z,7.03
2019-05-25T15:46:44.822Z,8.18
2019-05-25T15:49:15.152Z,7.97
2019-05-25T15:51:44.781Z,7.53
2019-05-25T15:54:15.100Z,8.00
2019-05-25T15:56:44.548Z,8.68
2019-05-25T15:59:14.843Z,7.53
2019-05-25T16:01:45.430Z,6.67
2019-05-25T16:04:15.671Z,7.78
2019-05-25T16:06:45.916Z,7.00
2019-05-25T16:09:16.087Z,7.03
2019-05-25T16:11:46.994Z,7.40
2019-05-25T16:14:17.490Z,6.55
2019-05-25T16:16:48.016Z,11.68
2019-05-25T16:19:18.950Z,6.80
2019-05-25T16:21:50.894Z,6.45
2019-05-25T16:24:21.375Z,6.40
2019-05-25T16:26:51.974Z,7.05
2019-05-25T16:29:22.522Z,7.40
2019-05-25T16:31:52.707Z,8.03
2019-05-25T16:34:24.365Z,7.12
2019-05-25T16:36:54.882Z,6.90
2019-05-25T16:39:24.975Z,6.60
2019-05-25T16:41:55.592Z,6.72
2019-05-25T16:44:25.630Z,7.87
2019-05-25T16:46:55.600Z,6.78
2019-05-25T16:49:25.799Z,7.03
2019-05-25T16:51:56.045Z,7.47
2019-05-25T16:54:25.547Z,10.32
2019-05-25T16:56:57.740Z,7.83
2019-05-25T16:59:27.877Z,7.40
2019-05-25T17:02:00.086Z,8.00
2019-05-25T17:04:30.264Z,7.75
2019-05-25T17:06:59.793Z,7.30
2019-05-25T17:09:30.515Z,7.10
2019-05-25T17:12:00.142Z,6.58
2019-05-25T17:14:30.453Z,7.42
2019-05-25T17:17:00.674Z,8.00
2019-05-25T17:19:31.078Z,8.10
2019-05-25T17:22:01.276Z,7.53
2019-05-25T17:24:31.814Z,7.47
2019-05-25T17:27:02.735Z,12.60
2019-05-25T17:29:32.952Z,9.40
2019-05-25T17:32:03.434Z,9.18
2019-05-25T17:34:33.965Z,8.55
2019-05-25T17:37:04.428Z,7.47
2019-05-25T17:39:36.986Z,6.40
2019-05-25T17:42:08.554Z,9.53
2019-05-25T17:44:38.023Z,9.40
2019-05-25T17:47:07.525Z,8.70
2019-05-25T17:49:37.970Z,8.13
2019-05-25T17:52:09.603Z,6.73
2019-05-25T17:54:39.725Z,8.20
2019-05-25T17:57:09.797Z,6.73
2019-05-25T17:59:40.484Z,7.87
2019-05-25T18:02:10.387Z,7.50
2019-05-25T18:04:42.294Z,8.20
2019-05-25T18:07:12.267Z,8.30
2019-05-25T18:09:42.032Z,8.03
2019-05-25T18:12:12.105Z,12.70
2019-05-25T18:14:42.600Z,11.15
2019-05-25T18:17:12.177Z,10.57
2019-05-25T18:19:41.944Z,8.07
2019-05-25T18:22:12.003Z,7.30
2019-05-25T18:24:42.390Z,8.37
2019-05-25T18:27:11.980Z,9.60
2019-05-25T18:29:42.703Z,9.13
2019-05-25T18:32:12.891Z,9.43
2019-05-25T18:34:43.627Z,9.40
2019-05-25T18:37:13.080Z,9.47
2019-05-25T18:39:43.231Z,9.17
2019-05-25T18:42:12.786Z,10.30
2019-05-25T18:44:43.433Z,10.80
2019-05-25T18:47:13.606Z,11.70
2019-05-25T18:49:43.197Z,10.67
2019-05-25T18:52:12.821Z,9.60
2019-05-25T18:54:42.325Z,9.90
2019-05-25T18:57:12.477Z,11.37
2019-05-25T18:59:42.059Z,11.40
2019-05-25T19:02:11.930Z,11.50
2019-05-25T19:04:50.094Z,10.45
2019-05-25T19:07:16.973Z,12.13
2019-05-25T19:09:48.025Z,12.07
2019-05-25T19:12:19.276Z,10.63
2019-05-25T19:14:49.651Z,11.57
2019-05-25T19:17:19.724Z,11.60
2019-05-25T19:19:49.424Z,11.73
2019-05-25T19:22:19.553Z,12.63
2019-05-25T19:24:50.123Z,11.87
2019-05-25T19:27:20.518Z,11.80
2019-05-25T19:29:50.906Z,10.87
2019-05-25T19:32:21.289Z,10.50
2019-05-25T19:34:59.700Z,10.90
2019-05-25T19:37:27.106Z,11.30
2019-05-25T19:40:00.003Z,10.00
2019-05-25T19:42:29.619Z,10.23
2019-05-25T19:45:06.667Z,10.90
2019-05-25T19:47:43.510Z,11.03
2019-05-25T19:50:13.666Z,11.47
2019-05-25T19:52:43.842Z,11.87
2019-05-25T19:55:14.379Z,11.03
2019-05-25T19:57:46.255Z,11.83
2019-05-25T20:00:17.117Z,12.37
2019-05-25T20:02:47.299Z,12.27
2019-05-25T20:05:20.248Z,13.10
2019-05-25T20:07:50.430Z,12.07
2019-05-25T20:10:23.144Z,14.03
2019-05-25T20:12:53.136Z,13.87
2019-05-25T20:15:22.721Z,13.93
2019-05-25T20:17:52.171Z,14.73
2019-05-25T20:20:21.681Z,15.60
2019-05-25T20:22:52.566Z,16.60
2019-05-25T20:25:22.207Z,17.33
2019-05-25T20:27:53.064Z,17.70
2019-05-25T20:30:23.627Z,17.60
2019-05-25T20:32:53.965Z,17.30
2019-05-25T20:35:32.394Z,19.17
2019-05-25T20:37:55.091Z,17.77
2019-05-25T20:40:25.151Z,19.03
2019-05-25T20:42:55.323Z,19.70
2019-05-25T20:45:25.507Z,20.60
2019-05-25T20:47:55.081Z,18.53
2019-05-25T20:50:25.064Z,21.87
2019-05-25T20:52:55.266Z,24.50
2019-05-25T20:55:25.800Z,19.60
2019-05-25T20:57:55.808Z,19.63
2019-05-25T21:00:26.082Z,18.63
2019-05-25T21:03:05.119Z,17.97
2019-05-25T21:05:28.167Z,17.93
2019-05-25T21:07:58.220Z,18.47
2019-05-25T21:10:28.448Z,17.20
2019-05-25T21:12:58.827Z,18.20
2019-05-25T21:15:28.423Z,18.57
2019-05-25T21:17:58.625Z,18.43
2019-05-25T21:20:28.818Z,17.40
2019-05-25T21:22:59.123Z,17.47
2019-05-25T21:25:28.607Z,17.67
2019-05-25T21:27:58.919Z,18.43
2019-05-25T21:30:29.006Z,17.93
2019-05-25T21:32:59.280Z,19.83
2019-05-25T21:35:29.246Z,19.27
2019-05-25T21:37:59.352Z,17.63
2019-05-25T21:40:29.797Z,55.37
2019-05-25T21:42:59.958Z,21.20
2019-05-25T21:45:30.339Z,19.67
2019-05-25T21:48:00.475Z,21.27
2019-05-25T21:50:30.787Z,28.10
2019-05-25T21:53:00.838Z,21.73
2019-05-25T21:55:31.141Z,20.50
2019-05-25T21:58:00.653Z,20.63
2019-05-25T22:00:32.436Z,24.47
2019-05-25T22:03:03.537Z,20.97
2019-05-25T22:05:35.168Z,20.63
2019-05-25T22:08:05.418Z,21.10
2019-05-25T22:10:35.528Z,20.13
2019-05-25T22:13:05.035Z,19.13
2019-05-25T22:15:34.462Z,17.50
2019-05-25T22:18:04.470Z,17.57
2019-05-25T22:20:34.923Z,19.37
2019-05-25T22:23:05.268Z,16.93
2019-05-25T22:25:35.364Z,15.80
2019-05-25T22:28:05.442Z,16.67
2019-05-25T22:30:35.891Z,16.17
2019-05-25T22:33:06.037Z,15.97
2019-05-25T22:35:37.162Z,15.30
2019-05-25T22:38:07.638Z,14.43
2019-05-25T22:40:38.870Z,15.63
2019-05-25T22:43:09.093Z,16.60
2019-05-25T22:45:40.547Z,15.27
2019-05-25T22:48:10.558Z,16.47
2019-05-25T22:50:40.837Z,15.50
2019-05-25T22:53:11.351Z,15.63
2019-05-25T22:55:41.446Z,15.27
2019-05-25T22:58:12.200Z,14.33
2019-05-25T23:00:42.231Z,15.70
2019-05-25T23:03:11.818Z,14.27
2019-05-25T23:05:42.887Z,13.60
2019-05-25T23:08:13.400Z,14.73
2019-05-25T23:10:43.562Z,13.77
2019-05-25T23:13:14.378Z,14.33
2019-05-25T23:15:44.502Z,14.50
2019-05-25T23:18:14.391Z,13.63
2019-05-25T23:20:44.342Z,13.60
2019-05-25T23:23:14.761Z,14.67
2019-05-25T23:25:44.782Z,14.63
2019-05-25T23:28:14.829Z,12.77
2019-05-25T23:30:44.916Z,14.43
2019-05-25T23:33:15.075Z,14.10
2019-05-25T23:35:45.243Z,14.53
2019-05-25T23:38:15.895Z,14.50
2019-05-25T23:40:46.343Z,13.77
2019-05-25T23:43:16.489Z,14.17
2019-05-25T23:45:47.914Z,18.50
2019-05-25T23:48:18.295Z,14.93
2019-05-25T23:50:48.484Z,13.40
2019-05-25T23:53:21.521Z,13.87
2019-05-25T23:55:51.643Z,11.83
2019-05-25T23:58:21.831Z,12.83
